Terminal Aerodrome Forecast
Issued by NWS Twin Cities, MN

Home | Current Version | Previous Version | Text Only | Print | Product List | Glossary Off
Versions: 1 2 3 4 5 6 7 8 9 10 11 12 13 14 15 16 17

459
FTUS43 KMPX 100529
TAFEAU
TAF
KEAU 100529Z 1006/1106 20005KT P6SM SCT030 OVC080
      TEMPO 1010/1012 BKN020
     FM101200 30008KT P6SM SCT020 OVC080
     FM110000 VRB03KT P6SM SCT020 OVC050=

USA.gov is the U.S. government's official web portal to all federal, state and local government web resources and services.